Time;durP1;ratioP1;P1;durP2;ratioP2;P2;SDS_P1;SDS_P2;PMS_P1;PMS_P2;Temp;Humidity;BMP_temperature;BMP_pressure;BME280_temperature;BME280_humidity;BME280_pressure;Samples;Min_cycle;Max_cycle;Signal;HPM_P1;HPM_P2
2023/06/08 00:01:53;;;;;;;7.50;6.70;;;;;;;;;;107957;270;39687;-35
2023/06/08 00:04:30;;;;;;;7.80;7.00;;;;;;;;;;107949;270;45647;-38
2023/06/08 00:07:08;;;;;;;7.70;6.90;;;;;;;;;;107886;272;42202;-39
2023/06/08 00:09:43;;;;;;;7.90;6.80;;;;;;;;;;107839;270;175406;-38
2023/06/08 00:12:17;;;;;;;7.00;6.30;;;;;;;;;;107941;270;41741;-39
2023/06/08 00:14:52;;;;;;;7.30;6.60;;;;;;;;;;107963;270;42847;-37
2023/06/08 00:17:27;;;;;;;7.70;6.80;;;;;;;;;;107985;278;42302;-37
2023/06/08 00:20:08;;;;;;;8.20;6.90;;;;;;;;;;107929;278;38826;-37
2023/06/08 00:22:47;;;;;;;7.40;6.60;;;;;;;;;;107972;270;40080;-37
2023/06/08 00:25:22;;;;;;;7.50;6.70;;;;;;;;;;107941;282;42827;-37
2023/06/08 00:27:56;;;;;;;7.10;6.30;;;;;;;;;;107992;278;43143;-37
2023/06/08 00:30:30;;;;;;;7.40;6.60;;;;;;;;;;107820;278;175412;-37
2023/06/08 00:33:06;;;;;;;7.50;6.80;;;;;;;;;;107982;274;39802;-36
2023/06/08 00:35:40;;;;;;;7.20;6.40;;;;;;;;;;107955;270;43146;-36
2023/06/08 00:38:14;;;;;;;7.10;6.00;;;;;;;;;;107959;278;42307;-37
2023/06/08 00:40:52;;;;;;;7.40;6.40;;;;;;;;;;107947;279;45620;-37
2023/06/08 00:43:26;;;;;;;7.20;6.50;;;;;;;;;;107967;270;39789;-37
2023/06/08 00:46:02;;;;;;;6.70;6.00;;;;;;;;;;108046;270;44037;-37
2023/06/08 00:48:38;;;;;;;7.20;6.10;;;;;;;;;;107968;278;42144;-37
2023/06/08 00:51:16;;;;;;;7.20;6.40;;;;;;;;;;107949;278;38765;-37
2023/06/08 00:53:51;;;;;;;7.60;6.80;;;;;;;;;;107866;270;175044;-37
2023/06/08 00:56:26;;;;;;;7.50;6.30;;;;;;;;;;108003;278;43130;-37
2023/06/08 00:59:03;;;;;;;6.90;6.20;;;;;;;;;;107918;278;42144;-37
2023/06/08 01:01:40;;;;;;;7.60;6.40;;;;;;;;;;107836;270;175060;-37
2023/06/08 01:04:16;;;;;;;7.80;6.60;;;;;;;;;;108002;278;39634;-37
2023/06/08 01:07:00;;;;;;;7.20;6.40;;;;;;;;;;107822;278;177081;-37
2023/06/08 01:09:45;;;;;;;8.10;6.90;;;;;;;;;;107958;278;41846;-37
2023/06/08 01:12:30;;;;;;;7.30;6.50;;;;;;;;;;107986;278;38947;-37
2023/06/08 01:15:15;;;;;;;7.80;6.90;;;;;;;;;;107984;278;39436;-37
2023/06/08 01:17:57;;;;;;;7.70;6.40;;;;;;;;;;108003;278;44002;-37
2023/06/08 01:20:49;;;;;;;7.20;6.50;;;;;;;;;;107940;278;42139;-37
2023/06/08 01:23:37;;;;;;;7.10;6.40;;;;;;;;;;108006;278;38832;-37
2023/06/08 01:26:15;;;;;;;7.40;6.50;;;;;;;;;;107987;277;41139;-37
2023/06/08 01:28:53;;;;;;;7.20;6.40;;;;;;;;;;107569;270;537022;-37
2023/06/08 01:31:30;;;;;;;7.50;6.50;;;;;;;;;;107913;270;42088;-37
2023/06/08 01:34:05;;;;;;;7.90;6.50;;;;;;;;;;107981;278;38861;-37
2023/06/08 01:36:50;;;;;;;7.70;6.60;;;;;;;;;;107997;270;39719;-37
2023/06/08 01:39:39;;;;;;;7.60;6.60;;;;;;;;;;107979;274;43040;-37
2023/06/08 01:42:19;;;;;;;7.60;6.50;;;;;;;;;;108139;270;49241;-37
2023/06/08 01:45:06;;;;;;;7.50;6.50;;;;;;;;;;108009;270;39684;-37
2023/06/08 01:47:51;;;;;;;8.60;6.50;;;;;;;;;;107988;278;39988;-37
2023/06/08 01:50:27;;;;;;;7.10;6.30;;;;;;;;;;107904;270;45090;-37
2023/06/08 01:53:01;;;;;;;7.30;6.40;;;;;;;;;;108037;270;41871;-37
2023/06/08 01:55:35;;;;;;;7.50;6.30;;;;;;;;;;107987;278;38706;-37
2023/06/08 01:58:09;;;;;;;7.90;6.60;;;;;;;;;;107991;270;40848;-37
2023/06/08 02:00:42;;;;;;;7.10;6.40;;;;;;;;;;107983;270;42861;-37
2023/06/08 02:03:16;;;;;;;7.50;6.50;;;;;;;;;;107984;278;42946;-36
2023/06/08 02:05:50;;;;;;;7.50;6.60;;;;;;;;;;108033;278;39753;-37
2023/06/08 02:08:26;;;;;;;7.00;6.30;;;;;;;;;;107971;278;40876;-37
2023/06/08 02:11:00;;;;;;;7.50;6.60;;;;;;;;;;107978;270;43043;-37
2023/06/08 02:13:35;;;;;;;7.70;6.50;;;;;;;;;;108056;270;42522;-37
2023/06/08 02:16:10;;;;;;;7.40;6.60;;;;;;;;;;108039;278;39828;-37
2023/06/08 02:18:50;;;;;;;7.60;6.80;;;;;;;;;;108022;270;39647;-37
2023/06/08 02:21:26;;;;;;;8.20;7.10;;;;;;;;;;108012;270;43917;-37
2023/06/08 02:24:00;;;;;;;8.10;7.30;;;;;;;;;;108037;270;42521;-37
2023/06/08 02:26:38;;;;;;;8.00;7.20;;;;;;;;;;108026;270;38843;-37
2023/06/08 02:29:14;;;;;;;8.00;7.20;;;;;;;;;;108043;270;39647;-37
2023/06/08 02:31:51;;;;;;;8.50;7.40;;;;;;;;;;107918;274;42641;-37
2023/06/08 02:34:27;;;;;;;8.40;7.50;;;;;;;;;;107989;278;42302;-37
2023/06/08 02:37:03;;;;;;;8.50;7.60;;;;;;;;;;107933;270;38832;-37
2023/06/08 02:39:39;;;;;;;8.40;7.40;;;;;;;;;;107962;270;39830;-37
2023/06/08 02:42:14;;;;;;;8.70;7.20;;;;;;;;;;107803;278;174992;-37
2023/06/08 02:44:48;;;;;;;7.90;7.10;;;;;;;;;;107953;270;42252;-37
2023/06/08 02:47:25;;;;;;;7.90;7.00;;;;;;;;;;107984;278;38838;-37
2023/06/08 02:50:00;;;;;;;8.30;7.50;;;;;;;;;;108004;278;39840;-37
2023/06/08 02:52:35;;;;;;;8.00;7.20;;;;;;;;;;107942;270;43177;-37
2023/06/08 02:55:10;;;;;;;7.80;7.00;;;;;;;;;;107985;270;42250;-37
2023/06/08 02:57:44;;;;;;;8.50;7.40;;;;;;;;;;107976;270;38928;-37
2023/06/08 03:00:21;;;;;;;8.00;7.20;;;;;;;;;;107974;278;40045;-37
2023/06/08 03:02:56;;;;;;;7.90;7.00;;;;;;;;;;107971;270;44239;-37
2023/06/08 03:05:34;;;;;;;7.90;7.10;;;;;;;;;;107993;270;42309;-37
2023/06/08 03:08:09;;;;;;;8.50;7.40;;;;;;;;;;107930;278;38882;-37
2023/06/08 03:10:44;;;;;;;7.80;7.00;;;;;;;;;;107973;270;39670;-37
2023/06/08 03:13:18;;;;;;;8.50;7.00;;;;;;;;;;107934;270;42815;-38
2023/06/08 03:15:56;;;;;;;8.00;7.20;;;;;;;;;;107951;278;42144;-38
2023/06/08 03:18:30;;;;;;;8.00;7.20;;;;;;;;;;107987;270;38709;-38
2023/06/08 03:21:04;;;;;;;8.40;7.50;;;;;;;;;;107973;278;39675;-38
2023/06/08 03:23:38;;;;;;;8.00;6.90;;;;;;;;;;107907;278;43268;-38
2023/06/08 03:26:13;;;;;;;8.20;7.30;;;;;;;;;;107964;278;42438;-38
2023/06/08 03:28:47;;;;;;;8.40;7.30;;;;;;;;;;107946;278;38896;-38
2023/06/08 03:31:22;;;;;;;8.00;7.20;;;;;;;;;;107972;278;39707;-38
2023/06/08 03:34:00;;;;;;;7.90;7.10;;;;;;;;;;107935;278;42982;-38
2023/06/08 03:36:35;;;;;;;8.50;7.60;;;;;;;;;;107966;270;43145;-38
2023/06/08 03:39:09;;;;;;;8.00;7.20;;;;;;;;;;107957;270;38740;-39
2023/06/08 03:41:43;;;;;;;7.90;7.10;;;;;;;;;;108016;270;39834;-38
2023/06/08 03:44:18;;;;;;;8.30;7.20;;;;;;;;;;107945;270;42881;-38
2023/06/08 03:46:51;;;;;;;8.00;7.20;;;;;;;;;;107969;274;43260;-38
2023/06/08 03:49:28;;;;;;;8.40;7.30;;;;;;;;;;107975;274;38816;-38
2023/06/08 03:52:04;;;;;;;8.10;7.30;;;;;;;;;;107972;270;39852;-38
2023/06/08 03:54:38;;;;;;;8.40;7.40;;;;;;;;;;107932;270;45195;-39
2023/06/08 03:57:13;;;;;;;8.00;7.20;;;;;;;;;;107954;274;43275;-38
2023/06/08 03:59:47;;;;;;;7.80;7.00;;;;;;;;;;107962;278;38794;-38
2023/06/08 04:02:21;;;;;;;8.00;7.20;;;;;;;;;;107934;278;39464;-39
2023/06/08 04:04:55;;;;;;;7.90;7.10;;;;;;;;;;107921;270;44014;-38
2023/06/08 04:07:29;;;;;;;7.30;6.50;;;;;;;;;;107980;270;43284;-38
2023/06/08 04:10:05;;;;;;;7.50;6.70;;;;;;;;;;107973;278;39799;-38
2023/06/08 04:12:41;;;;;;;8.00;7.00;;;;;;;;;;107970;270;39825;-38
2023/06/08 04:15:17;;;;;;;7.40;6.60;;;;;;;;;;107935;278;43079;-40
2023/06/08 04:17:51;;;;;;;7.80;6.80;;;;;;;;;;107979;270;42104;-38
2023/06/08 04:20:28;;;;;;;7.50;6.70;;;;;;;;;;107972;278;38939;-38
2023/06/08 04:23:03;;;;;;;7.80;7.00;;;;;;;;;;107980;277;40838;-39
2023/06/08 04:25:39;;;;;;;7.20;6.50;;;;;;;;;;107948;270;49603;-38
2023/06/08 04:28:13;;;;;;;7.40;6.40;;;;;;;;;;107967;278;43408;-39
2023/06/08 04:30:48;;;;;;;7.70;6.90;;;;;;;;;;107964;278;39895;-38
2023/06/08 04:33:22;;;;;;;8.20;6.80;;;;;;;;;;108003;278;39790;-39
2023/06/08 04:35:56;;;;;;;8.10;7.00;;;;;;;;;;107986;274;48590;-36
2023/06/08 04:38:30;;;;;;;7.00;6.30;;;;;;;;;;107958;278;41838;-36
2023/06/08 04:41:07;;;;;;;7.40;6.40;;;;;;;;;;107972;270;38750;-36
2023/06/08 04:43:44;;;;;;;7.70;6.50;;;;;;;;;;107959;278;39465;-36
2023/06/08 04:46:19;;;;;;;7.50;6.50;;;;;;;;;;107935;270;42987;-36
2023/06/08 04:48:56;;;;;;;7.40;6.60;;;;;;;;;;107937;278;42293;-36
2023/06/08 04:51:30;;;;;;;7.60;6.50;;;;;;;;;;108013;270;38921;-39
2023/06/08 04:54:04;;;;;;;8.10;6.30;;;;;;;;;;107978;270;40931;-38
2023/06/08 04:56:38;;;;;;;8.10;6.30;;;;;;;;;;107979;270;50410;-37
2023/06/08 04:59:12;;;;;;;7.60;6.60;;;;;;;;;;107988;278;43261;-38
2023/06/08 05:01:46;;;;;;;7.70;6.40;;;;;;;;;;108001;278;40061;-36
2023/06/08 05:04:21;;;;;;;7.40;6.00;;;;;;;;;;107899;278;40019;-36
2023/06/08 05:06:54;;;;;;;8.30;6.20;;;;;;;;;;107964;274;49221;-37
2023/06/08 05:09:28;;;;;;;7.30;5.90;;;;;;;;;;107918;270;44475;-37
2023/06/08 05:12:02;;;;;;;7.60;6.10;;;;;;;;;;107923;270;38868;-37
2023/06/08 05:14:36;;;;;;;7.30;6.20;;;;;;;;;;107939;270;39650;-37
2023/06/08 05:17:10;;;;;;;6.80;6.10;;;;;;;;;;107950;278;49113;-37
2023/06/08 05:19:44;;;;;;;6.70;5.80;;;;;;;;;;107875;278;175368;-37
2023/06/08 05:22:17;;;;;;;6.40;5.50;;;;;;;;;;107992;270;38798;-36
2023/06/08 05:24:52;;;;;;;6.90;5.90;;;;;;;;;;107959;270;39834;-36
2023/06/08 05:27:27;;;;;;;6.90;6.00;;;;;;;;;;107966;278;49036;-36
2023/06/08 05:30:04;;;;;;;6.60;5.70;;;;;;;;;;107990;270;42261;-37
2023/06/08 05:32:39;;;;;;;6.50;5.80;;;;;;;;;;108063;270;38737;-37
2023/06/08 05:35:13;;;;;;;6.80;5.60;;;;;;;;;;107985;270;39845;-37
2023/06/08 05:37:47;;;;;;;7.60;5.80;;;;;;;;;;108013;270;42840;-36
2023/06/08 05:40:24;;;;;;;6.80;5.50;;;;;;;;;;108003;270;43094;-37
2023/06/08 05:43:01;;;;;;;6.80;5.80;;;;;;;;;;108085;270;38863;-37
2023/06/08 05:45:35;;;;;;;7.20;5.60;;;;;;;;;;108022;275;39586;-37
2023/06/08 05:48:10;;;;;;;8.80;5.90;;;;;;;;;;108073;270;43946;-36
2023/06/08 05:50:54;;;;;;;6.90;5.70;;;;;;;;;;108080;270;42373;-43
2023/06/08 05:53:30;;;;;;;7.60;5.40;;;;;;;;;;107843;278;39137;-35
2023/06/08 05:56:05;;;;;;;8.10;5.40;;;;;;;;;;107940;279;39905;-41
2023/06/08 05:58:39;;;;;;;6.70;5.20;;;;;;;;;;107939;278;42967;-36
2023/06/08 06:01:23;;;;;;;7.60;5.40;;;;;;;;;;107971;278;43825;-35
2023/06/08 06:03:57;;;;;;;6.60;5.40;;;;;;;;;;107945;278;41980;-39
2023/06/08 06:06:32;;;;;;;7.40;5.00;;;;;;;;;;107918;279;39839;-36
2023/06/08 06:09:06;;;;;;;6.70;5.00;;;;;;;;;;107910;278;43019;-36
2023/06/08 06:11:39;;;;;;;6.90;5.10;;;;;;;;;;107898;270;42337;-38
2023/06/08 06:14:15;;;;;;;6.50;4.80;;;;;;;;;;107936;270;38844;-35
2023/06/08 06:16:48;;;;;;;6.60;4.80;;;;;;;;;;107912;270;39974;-36
2023/06/08 06:19:39;;;;;;;6.60;4.90;;;;;;;;;;107901;270;42823;-37
2023/06/08 06:22:15;;;;;;;6.80;4.90;;;;;;;;;;107821;270;175381;-36
2023/06/08 06:24:48;;;;;;;7.60;5.30;;;;;;;;;;107941;270;38992;-37
2023/06/08 06:27:22;;;;;;;7.20;5.30;;;;;;;;;;107961;278;39802;-37
2023/06/08 06:29:57;;;;;;;7.30;5.50;;;;;;;;;;107808;270;175435;-36
2023/06/08 06:32:30;;;;;;;7.00;5.50;;;;;;;;;;107941;275;42179;-36
2023/06/08 06:35:05;;;;;;;7.60;5.50;;;;;;;;;;107928;270;40832;-36
2023/06/08 06:37:40;;;;;;;7.00;5.30;;;;;;;;;;107924;278;40031;-36
2023/06/08 06:40:15;;;;;;;7.10;5.40;;;;;;;;;;107956;279;42940;-36
2023/06/08 06:42:48;;;;;;;6.30;5.30;;;;;;;;;;107915;270;42289;-36
2023/06/08 06:45:23;;;;;;;7.90;5.40;;;;;;;;;;107925;270;38814;-36
2023/06/08 06:47:56;;;;;;;6.40;5.30;;;;;;;;;;107887;279;41006;-36
2023/06/08 06:50:31;;;;;;;7.00;5.30;;;;;;;;;;107908;270;44994;-36
2023/06/08 06:53:05;;;;;;;6.30;5.00;;;;;;;;;;108059;271;43254;-36
2023/06/08 06:55:39;;;;;;;5.70;4.70;;;;;;;;;;108020;271;38756;-36
2023/06/08 06:58:14;;;;;;;6.30;5.20;;;;;;;;;;107987;278;41160;-36
2023/06/08 07:00:50;;;;;;;6.10;4.90;;;;;;;;;;108068;278;43991;-36
2023/06/08 07:03:26;;;;;;;6.30;4.80;;;;;;;;;;108050;278;42135;-36
2023/06/08 07:06:01;;;;;;;5.80;4.80;;;;;;;;;;108055;274;38742;-37
2023/06/08 07:08:36;;;;;;;5.50;4.40;;;;;;;;;;108127;271;40154;-37
2023/06/08 07:11:11;;;;;;;6.10;4.80;;;;;;;;;;108104;278;44318;-37
2023/06/08 07:13:45;;;;;;;5.60;4.50;;;;;;;;;;108034;278;43358;-37
2023/06/08 07:16:21;;;;;;;6.00;4.70;;;;;;;;;;108040;278;38959;-37
2023/06/08 07:19:00;;;;;;;5.70;4.40;;;;;;;;;;107980;278;39705;-37
2023/06/08 07:21:39;;;;;;;5.50;4.40;;;;;;;;;;108066;271;42993;-37
2023/06/08 07:24:21;;;;;;;5.70;4.60;;;;;;;;;;108000;278;42125;-37
2023/06/08 07:27:15;;;;;;;5.70;4.50;;;;;;;;;;107340;278;892908;-37
2023/06/08 07:29:49;;;;;;;5.70;4.20;;;;;;;;;;107993;278;39747;-37
2023/06/08 07:32:28;;;;;;;5.90;4.50;;;;;;;;;;108024;278;45218;-37
2023/06/08 07:35:04;;;;;;;6.40;4.40;;;;;;;;;;107969;271;42119;-37
2023/06/08 07:37:40;;;;;;;6.40;4.40;;;;;;;;;;107988;278;39906;-37
2023/06/08 07:40:17;;;;;;;5.70;4.40;;;;;;;;;;107992;271;40921;-37
2023/06/08 07:42:52;;;;;;;5.60;4.20;;;;;;;;;;107376;274;891419;-37
2023/06/08 07:45:27;;;;;;;5.70;4.20;;;;;;;;;;108005;271;42290;-37
2023/06/08 07:48:03;;;;;;;5.80;4.60;;;;;;;;;;108002;271;38777;-37
2023/06/08 07:50:37;;;;;;;5.70;4.30;;;;;;;;;;108002;278;39688;-37
2023/06/08 07:53:12;;;;;;;6.10;4.30;;;;;;;;;;107941;278;43069;-37
2023/06/08 07:55:46;;;;;;;6.10;4.30;;;;;;;;;;108005;271;42025;-37
2023/06/08 07:58:20;;;;;;;5.20;4.30;;;;;;;;;;107961;278;38735;-37
2023/06/08 08:00:54;;;;;;;5.70;4.30;;;;;;;;;;107997;278;39706;-36
2023/06/08 08:03:28;;;;;;;5.60;4.10;;;;;;;;;;108050;278;43168;-36
2023/06/08 08:06:02;;;;;;;7.10;4.40;;;;;;;;;;108021;278;42198;-36
2023/06/08 08:08:35;;;;;;;5.30;4.30;;;;;;;;;;107993;278;38805;-36
2023/06/08 08:11:09;;;;;;;5.50;4.00;;;;;;;;;;107997;278;39952;-37
2023/06/08 08:13:43;;;;;;;6.30;4.20;;;;;;;;;;108014;271;44122;-37
2023/06/08 08:16:16;;;;;;;5.10;4.00;;;;;;;;;;108026;271;42033;-37
2023/06/08 08:18:50;;;;;;;5.50;3.70;;;;;;;;;;107969;271;39044;-37
2023/06/08 08:21:24;;;;;;;5.20;3.90;;;;;;;;;;107987;270;39707;-37
2023/06/08 08:23:57;;;;;;;5.40;3.90;;;;;;;;;;108006;276;43183;-37
2023/06/08 08:26:31;;;;;;;6.10;4.20;;;;;;;;;;108009;270;42135;-37
2023/06/08 08:29:05;;;;;;;6.50;3.80;;;;;;;;;;107933;270;41091;-35
2023/06/08 08:31:38;;;;;;;6.20;4.20;;;;;;;;;;107957;271;40724;-37
2023/06/08 08:34:12;;;;;;;7.60;4.40;;;;;;;;;;107889;270;175416;-36
2023/06/08 08:36:46;;;;;;;5.90;4.00;;;;;;;;;;107967;270;43251;-37
2023/06/08 08:39:20;;;;;;;6.20;4.20;;;;;;;;;;107985;278;39818;-37
2023/06/08 08:42:03;;;;;;;5.90;4.30;;;;;;;;;;107975;270;39705;-38
2023/06/08 08:44:38;;;;;;;6.00;4.20;;;;;;;;;;107879;278;44867;-40
2023/06/08 08:47:14;;;;;;;5.70;4.20;;;;;;;;;;108007;278;41963;-41
2023/06/08 08:49:56;;;;;;;5.50;4.30;;;;;;;;;;107976;278;38677;-41
2023/06/08 08:52:33;;;;;;;7.10;4.30;;;;;;;;;;107991;278;39497;-42
2023/06/08 08:55:10;;;;;;;6.10;4.30;;;;;;;;;;107932;280;42738;-41
2023/06/08 08:58:02;;;;;;;5.90;4.50;;;;;;;;;;107870;270;175374;-42
2023/06/08 09:00:40;;;;;;;5.90;4.40;;;;;;;;;;107999;270;38851;-40
2023/06/08 09:03:18;;;;;;;5.40;3.90;;;;;;;;;;107981;278;39691;-41
2023/06/08 09:06:00;;;;;;;7.00;4.10;;;;;;;;;;107956;278;43065;-37
2023/06/08 09:08:35;;;;;;;6.70;4.10;;;;;;;;;;108033;270;42213;-38
2023/06/08 09:11:11;;;;;;;6.20;4.30;;;;;;;;;;108017;270;38827;-39
2023/06/08 09:13:46;;;;;;;6.20;4.50;;;;;;;;;;108080;278;40990;-39
2023/06/08 09:16:22;;;;;;;5.90;4.20;;;;;;;;;;107441;278;889414;-39
2023/06/08 09:19:08;;;;;;;6.80;4.10;;;;;;;;;;108097;271;43211;-41
2023/06/08 09:21:43;;;;;;;5.40;4.00;;;;;;;;;;108083;278;40197;-41
2023/06/08 09:24:19;;;;;;;7.00;4.30;;;;;;;;;;107964;271;39463;-38
2023/06/08 09:26:59;;;;;;;7.00;4.10;;;;;;;;;;107973;271;42910;-38
2023/06/08 09:29:40;;;;;;;6.90;4.40;;;;;;;;;;107493;271;567124;-38
2023/06/08 09:32:17;;;;;;;6.50;4.00;;;;;;;;;;107953;271;43915;-38
2023/06/08 09:34:58;;;;;;;6.10;4.30;;;;;;;;;;107814;278;174956;-38
2023/06/08 09:37:39;;;;;;;5.60;4.10;;;;;;;;;;107980;271;43025;-37
2023/06/08 09:40:22;;;;;;;6.30;4.20;;;;;;;;;;107943;278;42210;-37
2023/06/08 09:42:59;;;;;;;6.00;4.30;;;;;;;;;;107949;271;45213;-38
2023/06/08 09:45:45;;;;;;;6.30;4.40;;;;;;;;;;107994;278;39839;-37
2023/06/08 09:48:18;;;;;;;5.90;4.20;;;;;;;;;;107973;271;43181;-39
2023/06/08 09:50:55;;;;;;;5.50;3.80;;;;;;;;;;107805;278;175351;-39
2023/06/08 09:53:31;;;;;;;5.20;3.90;;;;;;;;;;107976;271;40009;-40
2023/06/08 09:56:10;;;;;;;6.10;4.00;;;;;;;;;;108004;271;39861;-39
2023/06/08 09:58:47;;;;;;;5.80;4.20;;;;;;;;;;107977;271;44110;-39
2023/06/08 10:01:30;;;;;;;5.00;3.90;;;;;;;;;;107927;271;42148;-38
2023/06/08 10:04:21;;;;;;;5.40;4.00;;;;;;;;;;108014;278;38787;-40
2023/06/08 10:07:02;;;;;;;5.60;4.00;;;;;;;;;;107989;278;40819;-39
2023/06/08 10:09:44;;;;;;;6.30;4.00;;;;;;;;;;107981;278;42981;-40
2023/06/08 10:12:21;;;;;;;5.70;3.90;;;;;;;;;;107938;278;41925;-40
2023/06/08 10:14:57;;;;;;;5.40;3.90;;;;;;;;;;107959;278;38786;-36
2023/06/08 10:17:33;;;;;;;5.10;3.50;;;;;;;;;;108011;271;39433;-36
